北京 の空港の天気 - METARとTAF

北京首都国際空港 ( ZBAA / PEK ) - 中国 北京市
飛行場実況気象(Metar)
観測時間10/22 19:30 CST (10/22 11:30 UTC)
風向・風速北北西 6m/s
視程10km以上
天気現象
なし
気温12℃
湿度19%
気圧1023hPa
METARZBAA 221130Z 33006MPS CAVOK 12/M11 Q1023 NOSIG
過去の天気等 Google飛行場航空写真 Wunderground天気予報

過去48時間のMETAR

飛行場予報(TAF)
発表時間: 10/22 17:03 CST (10/22 09:03 UTC)
予報対象時間: 22日20時 CST ~ 23日20時 CST
風向・風速北北西 4m/s
視程10km以上
なし
TAF ZBAA 220903Z 2212/2312 34004MPS CAVOK TX18/2307Z TN02/2221Z